sensor_id;sensor_type;location;lat;lon;timestamp;P1;durP1;ratioP1;P2;durP2;ratioP2
16969;SDS011;8601;48.718;8.992;2022-07-05T00:02:21;3.23;;;2.57;;
16969;SDS011;8601;48.718;8.992;2022-07-05T00:04:50;2.90;;;2.40;;
16969;SDS011;8601;48.718;8.992;2022-07-05T00:07:17;3.27;;;2.30;;
16969;SDS011;8601;48.718;8.992;2022-07-05T00:09:44;4.07;;;2.60;;
16969;SDS011;8601;48.718;8.992;2022-07-05T00:12:12;3.10;;;2.30;;
16969;SDS011;8601;48.718;8.992;2022-07-05T00:14:39;4.60;;;2.43;;
16969;SDS011;8601;48.718;8.992;2022-07-05T00:17:06;3.43;;;2.60;;
16969;SDS011;8601;48.718;8.992;2022-07-05T00:19:34;3.50;;;2.80;;
16969;SDS011;8601;48.718;8.992;2022-07-05T00:22:03;4.00;;;2.67;;
16969;SDS011;8601;48.718;8.992;2022-07-05T00:24:30;4.40;;;2.40;;
16969;SDS011;8601;48.718;8.992;2022-07-05T00:26:57;2.90;;;2.40;;
16969;SDS011;8601;48.718;8.992;2022-07-05T00:29:23;5.20;;;2.70;;
16969;SDS011;8601;48.718;8.992;2022-07-05T00:31:50;3.67;;;2.77;;
16969;SDS011;8601;48.718;8.992;2022-07-05T00:34:17;4.07;;;2.43;;
16969;SDS011;8601;48.718;8.992;2022-07-05T00:36:45;3.93;;;2.70;;
16969;SDS011;8601;48.718;8.992;2022-07-05T00:39:14;3.87;;;2.50;;
16969;SDS011;8601;48.718;8.992;2022-07-05T00:41:41;3.63;;;2.47;;
16969;SDS011;8601;48.718;8.992;2022-07-05T00:44:10;4.83;;;2.57;;
16969;SDS011;8601;48.718;8.992;2022-07-05T00:46:39;3.23;;;2.47;;
16969;SDS011;8601;48.718;8.992;2022-07-05T00:49:07;3.50;;;2.60;;
16969;SDS011;8601;48.718;8.992;2022-07-05T00:51:36;2.63;;;2.33;;
16969;SDS011;8601;48.718;8.992;2022-07-05T00:54:05;2.50;;;2.30;;
16969;SDS011;8601;48.718;8.992;2022-07-05T00:56:33;2.83;;;2.53;;
16969;SDS011;8601;48.718;8.992;2022-07-05T00:59:00;3.17;;;2.47;;
16969;SDS011;8601;48.718;8.992;2022-07-05T01:01:27;4.20;;;2.50;;
16969;SDS011;8601;48.718;8.992;2022-07-05T01:03:54;3.03;;;2.70;;
16969;SDS011;8601;48.718;8.992;2022-07-05T01:06:22;5.00;;;2.83;;
16969;SDS011;8601;48.718;8.992;2022-07-05T01:08:50;4.00;;;2.80;;
16969;SDS011;8601;48.718;8.992;2022-07-05T01:11:17;4.03;;;2.57;;
16969;SDS011;8601;48.718;8.992;2022-07-05T01:13:46;2.63;;;2.43;;
16969;SDS011;8601;48.718;8.992;2022-07-05T01:16:13;3.80;;;2.67;;
16969;SDS011;8601;48.718;8.992;2022-07-05T01:18:40;4.80;;;3.20;;
16969;SDS011;8601;48.718;8.992;2022-07-05T01:21:09;3.60;;;2.83;;
16969;SDS011;8601;48.718;8.992;2022-07-05T01:23:41;3.43;;;2.47;;
16969;SDS011;8601;48.718;8.992;2022-07-05T01:26:09;3.57;;;2.30;;
16969;SDS011;8601;48.718;8.992;2022-07-05T01:28:36;2.90;;;2.60;;
16969;SDS011;8601;48.718;8.992;2022-07-05T01:31:03;3.77;;;2.60;;
16969;SDS011;8601;48.718;8.992;2022-07-05T01:33:30;3.60;;;2.83;;
16969;SDS011;8601;48.718;8.992;2022-07-05T01:35:58;3.30;;;2.73;;
16969;SDS011;8601;48.718;8.992;2022-07-05T01:38:25;2.53;;;2.33;;
16969;SDS011;8601;48.718;8.992;2022-07-05T01:40:53;3.47;;;2.50;;
16969;SDS011;8601;48.718;8.992;2022-07-05T01:43:20;2.90;;;2.70;;
16969;SDS011;8601;48.718;8.992;2022-07-05T01:45:49;2.53;;;2.30;;
16969;SDS011;8601;48.718;8.992;2022-07-05T01:48:17;2.60;;;2.40;;
16969;SDS011;8601;48.718;8.992;2022-07-05T01:50:47;2.73;;;2.40;;
16969;SDS011;8601;48.718;8.992;2022-07-05T01:53:16;2.50;;;2.30;;
16969;SDS011;8601;48.718;8.992;2022-07-05T01:55:45;2.57;;;2.37;;
16969;SDS011;8601;48.718;8.992;2022-07-05T01:58:13;4.13;;;2.93;;
16969;SDS011;8601;48.718;8.992;2022-07-05T02:00:41;2.80;;;2.27;;
16969;SDS011;8601;48.718;8.992;2022-07-05T02:03:09;2.90;;;2.30;;
16969;SDS011;8601;48.718;8.992;2022-07-05T02:05:37;2.53;;;2.30;;
16969;SDS011;8601;48.718;8.992;2022-07-05T02:08:04;2.87;;;2.60;;
16969;SDS011;8601;48.718;8.992;2022-07-05T02:10:31;2.60;;;2.40;;
16969;SDS011;8601;48.718;8.992;2022-07-05T02:12:58;3.33;;;2.40;;
16969;SDS011;8601;48.718;8.992;2022-07-05T02:15:27;2.47;;;2.20;;
16969;SDS011;8601;48.718;8.992;2022-07-05T02:17:56;4.20;;;2.40;;
16969;SDS011;8601;48.718;8.992;2022-07-05T02:20:23;2.50;;;2.30;;
16969;SDS011;8601;48.718;8.992;2022-07-05T02:22:50;2.60;;;2.40;;
16969;SDS011;8601;48.718;8.992;2022-07-05T02:25:17;2.50;;;2.30;;
16969;SDS011;8601;48.718;8.992;2022-07-05T02:27:44;4.80;;;2.63;;
16969;SDS011;8601;48.718;8.992;2022-07-05T02:30:11;3.70;;;2.23;;
16969;SDS011;8601;48.718;8.992;2022-07-05T02:32:40;3.27;;;2.67;;
16969;SDS011;8601;48.718;8.992;2022-07-05T02:35:08;2.40;;;2.20;;
16969;SDS011;8601;48.718;8.992;2022-07-05T02:37:36;2.57;;;2.20;;
16969;SDS011;8601;48.718;8.992;2022-07-05T02:40:04;4.67;;;2.57;;
16969;SDS011;8601;48.718;8.992;2022-07-05T02:42:32;3.00;;;2.40;;
16969;SDS011;8601;48.718;8.992;2022-07-05T02:44:59;2.67;;;2.43;;
16969;SDS011;8601;48.718;8.992;2022-07-05T02:47:28;3.00;;;2.60;;
16969;SDS011;8601;48.718;8.992;2022-07-05T02:49:58;2.87;;;2.60;;
16969;SDS011;8601;48.718;8.992;2022-07-05T02:52:27;3.00;;;2.80;;
16969;SDS011;8601;48.718;8.992;2022-07-05T02:54:54;4.30;;;3.00;;
16969;SDS011;8601;48.718;8.992;2022-07-05T02:57:20;3.00;;;2.70;;
16969;SDS011;8601;48.718;8.992;2022-07-05T02:59:47;3.10;;;2.80;;
16969;SDS011;8601;48.718;8.992;2022-07-05T03:02:15;2.87;;;2.67;;
16969;SDS011;8601;48.718;8.992;2022-07-05T03:04:42;2.73;;;2.53;;
16969;SDS011;8601;48.718;8.992;2022-07-05T03:07:11;3.17;;;2.80;;
16969;SDS011;8601;48.718;8.992;2022-07-05T03:09:37;4.73;;;3.33;;
16969;SDS011;8601;48.718;8.992;2022-07-05T03:12:05;3.10;;;2.80;;
16969;SDS011;8601;48.718;8.992;2022-07-05T03:14:33;3.90;;;2.50;;
16969;SDS011;8601;48.718;8.992;2022-07-05T03:17:00;3.43;;;2.70;;
16969;SDS011;8601;48.718;8.992;2022-07-05T03:19:28;5.60;;;3.17;;
16969;SDS011;8601;48.718;8.992;2022-07-05T03:21:55;2.70;;;2.50;;
16969;SDS011;8601;48.718;8.992;2022-07-05T03:24:23;3.77;;;3.00;;
16969;SDS011;8601;48.718;8.992;2022-07-05T03:26:50;2.90;;;2.70;;
16969;SDS011;8601;48.718;8.992;2022-07-05T03:29:17;3.27;;;2.80;;
16969;SDS011;8601;48.718;8.992;2022-07-05T03:31:45;4.83;;;3.07;;
16969;SDS011;8601;48.718;8.992;2022-07-05T03:34:12;3.10;;;2.80;;
16969;SDS011;8601;48.718;8.992;2022-07-05T03:36:39;6.47;;;3.03;;
16969;SDS011;8601;48.718;8.992;2022-07-05T03:39:06;3.13;;;2.67;;
16969;SDS011;8601;48.718;8.992;2022-07-05T03:41:34;3.30;;;2.57;;
16969;SDS011;8601;48.718;8.992;2022-07-05T03:44:01;3.17;;;2.87;;
16969;SDS011;8601;48.718;8.992;2022-07-05T03:46:28;3.27;;;2.87;;
16969;SDS011;8601;48.718;8.992;2022-07-05T03:48:55;3.30;;;2.63;;
16969;SDS011;8601;48.718;8.992;2022-07-05T03:51:22;3.37;;;2.50;;
16969;SDS011;8601;48.718;8.992;2022-07-05T03:53:48;4.03;;;2.90;;
16969;SDS011;8601;48.718;8.992;2022-07-05T03:56:15;4.23;;;2.97;;
16969;SDS011;8601;48.718;8.992;2022-07-05T03:58:48;3.60;;;2.83;;
16969;SDS011;8601;48.718;8.992;2022-07-05T04:01:15;3.20;;;3.00;;
16969;SDS011;8601;48.718;8.992;2022-07-05T04:03:42;3.10;;;2.83;;
16969;SDS011;8601;48.718;8.992;2022-07-05T04:06:09;3.47;;;2.50;;
16969;SDS011;8601;48.718;8.992;2022-07-05T04:08:37;3.90;;;2.97;;
16969;SDS011;8601;48.718;8.992;2022-07-05T04:11:05;4.47;;;2.80;;
16969;SDS011;8601;48.718;8.992;2022-07-05T04:13:33;3.77;;;3.00;;
16969;SDS011;8601;48.718;8.992;2022-07-05T04:16:01;3.20;;;2.90;;
16969;SDS011;8601;48.718;8.992;2022-07-05T04:18:28;3.00;;;2.70;;
16969;SDS011;8601;48.718;8.992;2022-07-05T04:20:55;5.53;;;2.60;;
16969;SDS011;8601;48.718;8.992;2022-07-05T04:23:23;3.47;;;2.77;;
16969;SDS011;8601;48.718;8.992;2022-07-05T04:25:49;4.20;;;2.70;;
16969;SDS011;8601;48.718;8.992;2022-07-05T04:28:16;2.97;;;2.67;;
16969;SDS011;8601;48.718;8.992;2022-07-05T04:30:44;3.77;;;2.80;;
16969;SDS011;8601;48.718;8.992;2022-07-05T04:33:12;2.90;;;2.67;;
16969;SDS011;8601;48.718;8.992;2022-07-05T04:35:39;3.87;;;2.57;;
16969;SDS011;8601;48.718;8.992;2022-07-05T04:38:06;3.33;;;2.43;;
16969;SDS011;8601;48.718;8.992;2022-07-05T04:40:33;3.03;;;2.43;;
16969;SDS011;8601;48.718;8.992;2022-07-05T04:43:00;3.30;;;2.63;;
16969;SDS011;8601;48.718;8.992;2022-07-05T04:45:28;3.17;;;2.30;;
16969;SDS011;8601;48.718;8.992;2022-07-05T04:47:54;2.93;;;2.57;;
16969;SDS011;8601;48.718;8.992;2022-07-05T04:50:23;4.10;;;2.50;;
16969;SDS011;8601;48.718;8.992;2022-07-05T04:52:50;3.87;;;2.53;;
16969;SDS011;8601;48.718;8.992;2022-07-05T04:55:17;4.23;;;2.47;;
16969;SDS011;8601;48.718;8.992;2022-07-05T04:57:44;4.10;;;2.73;;
16969;SDS011;8601;48.718;8.992;2022-07-05T05:00:12;2.83;;;2.63;;
16969;SDS011;8601;48.718;8.992;2022-07-05T05:02:41;3.60;;;2.80;;
16969;SDS011;8601;48.718;8.992;2022-07-05T05:05:08;3.40;;;3.03;;
16969;SDS011;8601;48.718;8.992;2022-07-05T05:07:37;3.93;;;2.67;;
16969;SDS011;8601;48.718;8.992;2022-07-05T05:10:08;3.80;;;2.80;;
16969;SDS011;8601;48.718;8.992;2022-07-05T05:12:35;3.57;;;2.77;;
16969;SDS011;8601;48.718;8.992;2022-07-05T05:15:02;2.80;;;2.47;;
16969;SDS011;8601;48.718;8.992;2022-07-05T05:17:36;2.70;;;2.50;;
16969;SDS011;8601;48.718;8.992;2022-07-05T05:20:05;2.67;;;2.20;;
16969;SDS011;8601;48.718;8.992;2022-07-05T05:22:37;2.70;;;2.50;;
16969;SDS011;8601;48.718;8.992;2022-07-05T05:25:04;4.00;;;2.13;;
16969;SDS011;8601;48.718;8.992;2022-07-05T05:27:31;2.80;;;2.50;;
16969;SDS011;8601;48.718;8.992;2022-07-05T05:29:59;5.63;;;2.50;;
16969;SDS011;8601;48.718;8.992;2022-07-05T05:32:26;5.67;;;2.77;;
16969;SDS011;8601;48.718;8.992;2022-07-05T05:34:52;6.13;;;2.60;;
16969;SDS011;8601;48.718;8.992;2022-07-05T05:37:19;2.67;;;2.40;;
16969;SDS011;8601;48.718;8.992;2022-07-05T05:39:48;2.53;;;2.33;;
16969;SDS011;8601;48.718;8.992;2022-07-05T05:42:15;4.50;;;2.50;;
16969;SDS011;8601;48.718;8.992;2022-07-05T05:44:43;3.10;;;2.30;;
16969;SDS011;8601;48.718;8.992;2022-07-05T05:47:10;3.10;;;2.90;;
16969;SDS011;8601;48.718;8.992;2022-07-05T05:49:36;3.23;;;2.30;;
16969;SDS011;8601;48.718;8.992;2022-07-05T05:52:04;3.40;;;2.53;;
16969;SDS011;8601;48.718;8.992;2022-07-05T05:57:26;3.23;;;2.63;;
16969;SDS011;8601;48.718;8.992;2022-07-05T05:59:53;4.57;;;2.27;;
16969;SDS011;8601;48.718;8.992;2022-07-05T06:02:20;3.40;;;1.97;;
16969;SDS011;8601;48.718;8.992;2022-07-05T06:04:47;2.00;;;1.90;;
16969;SDS011;8601;48.718;8.992;2022-07-05T06:07:14;2.60;;;2.40;;
16969;SDS011;8601;48.718;8.992;2022-07-05T06:09:44;4.03;;;2.27;;
16969;SDS011;8601;48.718;8.992;2022-07-05T06:12:11;2.70;;;1.90;;
16969;SDS011;8601;48.718;8.992;2022-07-05T06:14:39;4.67;;;2.60;;
16969;SDS011;8601;48.718;8.992;2022-07-05T06:17:06;3.40;;;2.60;;
16969;SDS011;8601;48.718;8.992;2022-07-05T06:19:36;4.37;;;2.20;;
16969;SDS011;8601;48.718;8.992;2022-07-05T06:22:10;7.13;;;1.63;;
16969;SDS011;8601;48.718;8.992;2022-07-05T06:24:37;2.43;;;1.70;;
16969;SDS011;8601;48.718;8.992;2022-07-05T06:27:04;2.53;;;1.70;;
16969;SDS011;8601;48.718;8.992;2022-07-05T06:29:31;3.23;;;1.57;;
16969;SDS011;8601;48.718;8.992;2022-07-05T06:32:00;3.23;;;1.60;;
16969;SDS011;8601;48.718;8.992;2022-07-05T06:34:28;2.93;;;1.90;;
16969;SDS011;8601;48.718;8.992;2022-07-05T06:36:55;3.70;;;1.60;;
16969;SDS011;8601;48.718;8.992;2022-07-05T06:39:22;1.60;;;1.37;;
16969;SDS011;8601;48.718;8.992;2022-07-05T06:41:49;2.33;;;1.20;;
16969;SDS011;8601;48.718;8.992;2022-07-05T06:44:17;3.80;;;1.40;;
16969;SDS011;8601;48.718;8.992;2022-07-05T06:46:44;3.60;;;1.40;;
16969;SDS011;8601;48.718;8.992;2022-07-05T06:49:13;3.53;;;1.57;;
16969;SDS011;8601;48.718;8.992;2022-07-05T06:51:47;1.53;;;1.37;;
16969;SDS011;8601;48.718;8.992;2022-07-05T06:54:14;3.33;;;1.37;;
16969;SDS011;8601;48.718;8.992;2022-07-05T06:56:42;1.73;;;1.00;;
16969;SDS011;8601;48.718;8.992;2022-07-05T07:01:58;4.47;;;1.70;;
16969;SDS011;8601;48.718;8.992;2022-07-05T07:04:27;2.03;;;1.17;;
16969;SDS011;8601;48.718;8.992;2022-07-05T07:06:54;3.17;;;1.27;;
16969;SDS011;8601;48.718;8.992;2022-07-05T07:09:21;6.50;;;2.80;;
16969;SDS011;8601;48.718;8.992;2022-07-05T07:11:54;1.20;;;1.10;;
16969;SDS011;8601;48.718;8.992;2022-07-05T07:14:21;1.40;;;1.30;;
16969;SDS011;8601;48.718;8.992;2022-07-05T07:16:47;2.57;;;1.47;;
16969;SDS011;8601;48.718;8.992;2022-07-05T07:19:14;2.80;;;1.20;;
16969;SDS011;8601;48.718;8.992;2022-07-05T07:21:42;2.13;;;1.30;;
16969;SDS011;8601;48.718;8.992;2022-07-05T07:24:10;2.30;;;1.23;;
16969;SDS011;8601;48.718;8.992;2022-07-05T07:26:37;2.60;;;1.27;;
16969;SDS011;8601;48.718;8.992;2022-07-05T07:29:22;1.43;;;1.10;;
16969;SDS011;8601;48.718;8.992;2022-07-05T07:31:49;4.03;;;1.33;;
16969;SDS011;8601;48.718;8.992;2022-07-05T07:34:16;2.27;;;1.40;;
16969;SDS011;8601;48.718;8.992;2022-07-05T07:36:44;2.13;;;1.10;;
16969;SDS011;8601;48.718;8.992;2022-07-05T07:39:11;1.70;;;1.13;;
16969;SDS011;8601;48.718;8.992;2022-07-05T07:41:38;1.90;;;1.07;;
16969;SDS011;8601;48.718;8.992;2022-07-05T07:44:06;2.43;;;1.30;;
16969;SDS011;8601;48.718;8.992;2022-07-05T07:46:34;1.10;;;1.00;;
16969;SDS011;8601;48.718;8.992;2022-07-05T07:49:01;2.60;;;1.50;;
16969;SDS011;8601;48.718;8.992;2022-07-05T07:51:28;2.50;;;1.30;;
16969;SDS011;8601;48.718;8.992;2022-07-05T07:53:57;1.77;;;1.00;;
16969;SDS011;8601;48.718;8.992;2022-07-05T07:56:24;2.27;;;0.90;;
16969;SDS011;8601;48.718;8.992;2022-07-05T07:58:51;0.97;;;0.97;;
16969;SDS011;8601;48.718;8.992;2022-07-05T08:01:18;3.03;;;1.00;;
16969;SDS011;8601;48.718;8.992;2022-07-05T08:03:46;3.17;;;1.40;;
16969;SDS011;8601;48.718;8.992;2022-07-05T08:06:13;2.90;;;1.40;;
16969;SDS011;8601;48.718;8.992;2022-07-05T08:08:42;2.07;;;1.23;;
16969;SDS011;8601;48.718;8.992;2022-07-05T08:11:12;2.23;;;1.20;;
16969;SDS011;8601;48.718;8.992;2022-07-05T08:13:39;2.03;;;1.00;;
16969;SDS011;8601;48.718;8.992;2022-07-05T08:16:08;2.17;;;1.33;;
16969;SDS011;8601;48.718;8.992;2022-07-05T08:18:36;4.47;;;1.23;;
16969;SDS011;8601;48.718;8.992;2022-07-05T08:21:21;1.67;;;1.07;;
16969;SDS011;8601;48.718;8.992;2022-07-05T08:23:57;3.90;;;1.20;;
16969;SDS011;8601;48.718;8.992;2022-07-05T08:26:26;1.90;;;1.13;;
16969;SDS011;8601;48.718;8.992;2022-07-05T08:28:55;2.43;;;1.17;;
16969;SDS011;8601;48.718;8.992;2022-07-05T08:31:23;3.57;;;1.10;;
16969;SDS011;8601;48.718;8.992;2022-07-05T08:33:50;5.60;;;1.20;;
16969;SDS011;8601;48.718;8.992;2022-07-05T08:36:17;2.83;;;1.10;;
16969;SDS011;8601;48.718;8.992;2022-07-05T08:38:44;4.53;;;1.33;;
16969;SDS011;8601;48.718;8.992;2022-07-05T08:41:11;4.73;;;1.30;;
16969;SDS011;8601;48.718;8.992;2022-07-05T08:43:41;2.43;;;1.20;;
16969;SDS011;8601;48.718;8.992;2022-07-05T08:46:08;2.07;;;0.90;;
16969;SDS011;8601;48.718;8.992;2022-07-05T08:48:37;2.07;;;1.00;;
16969;SDS011;8601;48.718;8.992;2022-07-05T08:51:09;2.30;;;1.20;;
16969;SDS011;8601;48.718;8.992;2022-07-05T08:53:38;2.27;;;1.17;;
16969;SDS011;8601;48.718;8.992;2022-07-05T08:56:07;2.43;;;1.20;;
16969;SDS011;8601;48.718;8.992;2022-07-05T08:58:42;3.80;;;1.10;;
16969;SDS011;8601;48.718;8.992;2022-07-05T09:01:10;3.43;;;1.20;;
16969;SDS011;8601;48.718;8.992;2022-07-05T09:03:39;1.67;;;1.47;;
16969;SDS011;8601;48.718;8.992;2022-07-05T09:06:16;1.93;;;1.13;;
16969;SDS011;8601;48.718;8.992;2022-07-05T09:08:45;2.37;;;1.07;;
16969;SDS011;8601;48.718;8.992;2022-07-05T09:11:15;2.00;;;1.00;;
16969;SDS011;8601;48.718;8.992;2022-07-05T09:13:48;1.30;;;1.00;;
16969;SDS011;8601;48.718;8.992;2022-07-05T09:16:16;2.50;;;1.40;;
16969;SDS011;8601;48.718;8.992;2022-07-05T09:18:44;3.07;;;1.03;;
16969;SDS011;8601;48.718;8.992;2022-07-05T09:21:15;1.80;;;1.10;;
16969;SDS011;8601;48.718;8.992;2022-07-05T09:23:45;2.80;;;1.17;;
16969;SDS011;8601;48.718;8.992;2022-07-05T09:26:20;1.60;;;0.90;;
16969;SDS011;8601;48.718;8.992;2022-07-05T09:28:54;2.13;;;0.80;;
16969;SDS011;8601;48.718;8.992;2022-07-05T09:31:25;2.50;;;0.87;;
16969;SDS011;8601;48.718;8.992;2022-07-05T09:33:53;1.93;;;0.73;;
16969;SDS011;8601;48.718;8.992;2022-07-05T09:36:20;2.23;;;1.10;;
16969;SDS011;8601;48.718;8.992;2022-07-05T09:38:49;1.40;;;1.00;;
16969;SDS011;8601;48.718;8.992;2022-07-05T09:41:17;1.67;;;0.90;;
16969;SDS011;8601;48.718;8.992;2022-07-05T09:43:43;1.90;;;1.00;;
16969;SDS011;8601;48.718;8.992;2022-07-05T09:46:12;0.87;;;0.80;;
16969;SDS011;8601;48.718;8.992;2022-07-05T09:48:50;1.40;;;1.03;;
16969;SDS011;8601;48.718;8.992;2022-07-05T09:51:19;2.97;;;1.00;;
16969;SDS011;8601;48.718;8.992;2022-07-05T09:53:46;2.43;;;1.00;;
16969;SDS011;8601;48.718;8.992;2022-07-05T09:56:14;2.17;;;0.90;;
16969;SDS011;8601;48.718;8.992;2022-07-05T09:58:42;1.80;;;0.87;;
16969;SDS011;8601;48.718;8.992;2022-07-05T10:01:26;4.00;;;1.00;;
16969;SDS011;8601;48.718;8.992;2022-07-05T10:03:55;3.25;;;0.98;;
16969;SDS011;8601;48.718;8.992;2022-07-05T10:06:23;4.20;;;0.90;;
16969;SDS011;8601;48.718;8.992;2022-07-05T10:08:52;2.40;;;0.88;;
16969;SDS011;8601;48.718;8.992;2022-07-05T10:11:19;2.63;;;0.98;;
16969;SDS011;8601;48.718;8.992;2022-07-05T10:13:47;1.83;;;0.90;;
16969;SDS011;8601;48.718;8.992;2022-07-05T10:16:16;1.70;;;0.98;;
16969;SDS011;8601;48.718;8.992;2022-07-05T10:18:45;0.90;;;0.77;;
16969;SDS011;8601;48.718;8.992;2022-07-05T10:21:13;1.85;;;0.90;;
16969;SDS011;8601;48.718;8.992;2022-07-05T10:23:42;1.55;;;0.80;;
16969;SDS011;8601;48.718;8.992;2022-07-05T10:26:11;2.10;;;0.80;;
16969;SDS011;8601;48.718;8.992;2022-07-05T10:28:38;2.45;;;0.77;;
16969;SDS011;8601;48.718;8.992;2022-07-05T10:31:07;2.05;;;0.90;;
16969;SDS011;8601;48.718;8.992;2022-07-05T10:33:35;1.92;;;0.95;;
16969;SDS011;8601;48.718;8.992;2022-07-05T10:36:03;1.95;;;0.90;;
16969;SDS011;8601;48.718;8.992;2022-07-05T10:38:34;1.88;;;0.90;;
16969;SDS011;8601;48.718;8.992;2022-07-05T10:41:02;1.58;;;0.80;;
16969;SDS011;8601;48.718;8.992;2022-07-05T10:43:31;2.25;;;0.90;;
16969;SDS011;8601;48.718;8.992;2022-07-05T10:45:59;0.98;;;0.60;;
16969;SDS011;8601;48.718;8.992;2022-07-05T10:48:27;1.98;;;0.90;;
16969;SDS011;8601;48.718;8.992;2022-07-05T10:50:57;3.47;;;1.10;;
16969;SDS011;8601;48.718;8.992;2022-07-05T10:53:28;2.83;;;1.08;;
16969;SDS011;8601;48.718;8.992;2022-07-05T10:56:16;1.50;;;0.90;;
16969;SDS011;8601;48.718;8.992;2022-07-05T10:58:43;2.15;;;0.90;;
16969;SDS011;8601;48.718;8.992;2022-07-05T11:07:00;1.92;;;0.77;;
16969;SDS011;8601;48.718;8.992;2022-07-05T11:09:31;2.88;;;1.10;;
16969;SDS011;8601;48.718;8.992;2022-07-05T11:12:04;1.52;;;0.95;;
16969;SDS011;8601;48.718;8.992;2022-07-05T11:14:34;1.20;;;0.77;;
16969;SDS011;8601;48.718;8.992;2022-07-05T11:17:10;2.65;;;1.20;;
16969;SDS011;8601;48.718;8.992;2022-07-05T11:23:03;2.40;;;1.00;;
16969;SDS011;8601;48.718;8.992;2022-07-05T11:25:39;2.85;;;0.90;;
16969;SDS011;8601;48.718;8.992;2022-07-05T11:30:47;2.58;;;0.90;;
16969;SDS011;8601;48.718;8.992;2022-07-05T11:33:25;2.97;;;1.00;;
16969;SDS011;8601;48.718;8.992;2022-07-05T11:35:54;2.55;;;1.23;;
16969;SDS011;8601;48.718;8.992;2022-07-05T11:38:22;2.15;;;1.30;;
16969;SDS011;8601;48.718;8.992;2022-07-05T11:40:51;1.80;;;1.00;;
16969;SDS011;8601;48.718;8.992;2022-07-05T11:43:25;2.28;;;1.00;;
16969;SDS011;8601;48.718;8.992;2022-07-05T11:45:55;2.50;;;1.42;;
16969;SDS011;8601;48.718;8.992;2022-07-05T11:48:23;1.73;;;1.02;;
16969;SDS011;8601;48.718;8.992;2022-07-05T11:50:53;2.95;;;1.50;;
16969;SDS011;8601;48.718;8.992;2022-07-05T11:53:27;2.90;;;1.15;;
16969;SDS011;8601;48.718;8.992;2022-07-05T11:55:57;2.17;;;1.00;;
16969;SDS011;8601;48.718;8.992;2022-07-05T11:58:30;1.85;;;1.10;;
16969;SDS011;8601;48.718;8.992;2022-07-05T12:00:58;2.33;;;1.00;;
16969;SDS011;8601;48.718;8.992;2022-07-05T12:03:25;2.85;;;1.00;;
16969;SDS011;8601;48.718;8.992;2022-07-05T12:05:53;1.83;;;0.80;;
16969;SDS011;8601;48.718;8.992;2022-07-05T12:08:20;2.08;;;0.93;;
16969;SDS011;8601;48.718;8.992;2022-07-05T12:10:48;1.92;;;1.02;;
16969;SDS011;8601;48.718;8.992;2022-07-05T12:13:43;1.88;;;1.10;;
16969;SDS011;8601;48.718;8.992;2022-07-05T12:16:11;2.78;;;0.90;;
16969;SDS011;8601;48.718;8.992;2022-07-05T12:18:48;1.27;;;0.93;;
16969;SDS011;8601;48.718;8.992;2022-07-05T12:21:17;1.52;;;0.90;;
16969;SDS011;8601;48.718;8.992;2022-07-05T12:23:47;2.90;;;1.10;;
16969;SDS011;8601;48.718;8.992;2022-07-05T12:26:16;1.80;;;1.05;;
16969;SDS011;8601;48.718;8.992;2022-07-05T12:28:46;1.33;;;0.90;;
16969;SDS011;8601;48.718;8.992;2022-07-05T12:31:15;3.15;;;1.10;;
16969;SDS011;8601;48.718;8.992;2022-07-05T12:33:43;3.97;;;1.20;;
16969;SDS011;8601;48.718;8.992;2022-07-05T12:36:10;2.30;;;0.90;;
16969;SDS011;8601;48.718;8.992;2022-07-05T12:38:38;3.95;;;0.82;;
16969;SDS011;8601;48.718;8.992;2022-07-05T12:41:06;1.92;;;1.05;;
16969;SDS011;8601;48.718;8.992;2022-07-05T12:43:49;2.72;;;1.05;;
16969;SDS011;8601;48.718;8.992;2022-07-05T12:46:17;2.10;;;0.85;;
16969;SDS011;8601;48.718;8.992;2022-07-05T12:48:50;1.38;;;0.85;;
16969;SDS011;8601;48.718;8.992;2022-07-05T12:51:30;1.17;;;0.90;;
16969;SDS011;8601;48.718;8.992;2022-07-05T12:53:58;3.75;;;1.00;;
16969;SDS011;8601;48.718;8.992;2022-07-05T12:56:46;2.17;;;1.00;;
16969;SDS011;8601;48.718;8.992;2022-07-05T12:59:33;1.63;;;0.90;;
16969;SDS011;8601;48.718;8.992;2022-07-05T13:02:01;2.13;;;1.00;;
16969;SDS011;8601;48.718;8.992;2022-07-05T13:04:33;1.13;;;1.05;;
16969;SDS011;8601;48.718;8.992;2022-07-05T13:07:02;1.42;;;0.93;;
16969;SDS011;8601;48.718;8.992;2022-07-05T13:09:31;1.38;;;1.00;;
16969;SDS011;8601;48.718;8.992;2022-07-05T13:12:06;2.42;;;0.90;;
16969;SDS011;8601;48.718;8.992;2022-07-05T13:14:37;3.42;;;0.95;;
16969;SDS011;8601;48.718;8.992;2022-07-05T13:17:05;1.33;;;0.80;;
16969;SDS011;8601;48.718;8.992;2022-07-05T13:19:33;2.22;;;0.85;;
16969;SDS011;8601;48.718;8.992;2022-07-05T13:22:00;2.60;;;0.90;;
16969;SDS011;8601;48.718;8.992;2022-07-05T13:24:28;2.70;;;0.90;;
16969;SDS011;8601;48.718;8.992;2022-07-05T13:26:55;2.40;;;0.75;;
16969;SDS011;8601;48.718;8.992;2022-07-05T13:29:23;2.20;;;1.00;;
16969;SDS011;8601;48.718;8.992;2022-07-05T13:31:53;3.63;;;1.00;;
16969;SDS011;8601;48.718;8.992;2022-07-05T13:34:21;3.28;;;1.10;;
16969;SDS011;8601;48.718;8.992;2022-07-05T13:36:49;2.63;;;1.55;;
16969;SDS011;8601;48.718;8.992;2022-07-05T13:39:16;1.48;;;0.95;;
16969;SDS011;8601;48.718;8.992;2022-07-05T13:41:44;2.50;;;0.95;;
16969;SDS011;8601;48.718;8.992;2022-07-05T13:44:12;1.58;;;0.90;;
16969;SDS011;8601;48.718;8.992;2022-07-05T13:46:39;3.38;;;1.10;;
16969;SDS011;8601;48.718;8.992;2022-07-05T13:49:10;2.35;;;1.00;;
16969;SDS011;8601;48.718;8.992;2022-07-05T13:51:38;2.08;;;0.93;;
16969;SDS011;8601;48.718;8.992;2022-07-05T13:54:06;2.67;;;1.05;;
16969;SDS011;8601;48.718;8.992;2022-07-05T13:56:34;3.33;;;1.10;;
16969;SDS011;8601;48.718;8.992;2022-07-05T13:59:02;2.13;;;0.90;;
16969;SDS011;8601;48.718;8.992;2022-07-05T14:01:29;3.75;;;1.02;;
16969;SDS011;8601;48.718;8.992;2022-07-05T14:03:57;1.83;;;0.98;;
16969;SDS011;8601;48.718;8.992;2022-07-05T14:06:28;4.07;;;1.02;;
16969;SDS011;8601;48.718;8.992;2022-07-05T14:08:56;1.77;;;0.93;;
16969;SDS011;8601;48.718;8.992;2022-07-05T14:11:23;4.18;;;1.08;;
16969;SDS011;8601;48.718;8.992;2022-07-05T14:13:51;1.20;;;0.85;;
16969;SDS011;8601;48.718;8.992;2022-07-05T14:16:18;3.83;;;1.33;;
16969;SDS011;8601;48.718;8.992;2022-07-05T14:18:45;1.85;;;0.93;;
16969;SDS011;8601;48.718;8.992;2022-07-05T14:21:13;1.48;;;0.80;;
16969;SDS011;8601;48.718;8.992;2022-07-05T14:23:42;3.42;;;1.20;;
16969;SDS011;8601;48.718;8.992;2022-07-05T14:26:11;1.50;;;1.02;;
16969;SDS011;8601;48.718;8.992;2022-07-05T14:28:38;2.88;;;0.98;;
16969;SDS011;8601;48.718;8.992;2022-07-05T14:31:05;1.95;;;1.10;;
16969;SDS011;8601;48.718;8.992;2022-07-05T14:33:32;2.75;;;0.90;;
16969;SDS011;8601;48.718;8.992;2022-07-05T14:35:59;2.28;;;1.05;;
16969;SDS011;8601;48.718;8.992;2022-07-05T14:38:27;2.83;;;1.05;;
16969;SDS011;8601;48.718;8.992;2022-07-05T14:40:55;2.60;;;1.08;;
16969;SDS011;8601;48.718;8.992;2022-07-05T14:43:22;1.10;;;0.90;;
16969;SDS011;8601;48.718;8.992;2022-07-05T14:45:49;1.90;;;0.82;;
16969;SDS011;8601;48.718;8.992;2022-07-05T14:48:17;2.88;;;0.88;;
16969;SDS011;8601;48.718;8.992;2022-07-05T14:50:45;2.42;;;0.90;;
16969;SDS011;8601;48.718;8.992;2022-07-05T14:53:13;2.08;;;0.90;;
16969;SDS011;8601;48.718;8.992;2022-07-05T14:55:42;2.42;;;0.95;;
16969;SDS011;8601;48.718;8.992;2022-07-05T14:58:10;1.63;;;0.93;;
16969;SDS011;8601;48.718;8.992;2022-07-05T15:00:37;2.70;;;1.10;;
16969;SDS011;8601;48.718;8.992;2022-07-05T15:03:04;1.40;;;0.90;;
16969;SDS011;8601;48.718;8.992;2022-07-05T15:05:33;2.92;;;1.15;;
16969;SDS011;8601;48.718;8.992;2022-07-05T15:08:00;2.40;;;1.00;;
16969;SDS011;8601;48.718;8.992;2022-07-05T15:10:27;2.53;;;1.10;;
16969;SDS011;8601;48.718;8.992;2022-07-05T15:12:54;1.67;;;0.70;;
16969;SDS011;8601;48.718;8.992;2022-07-05T15:15:23;1.95;;;0.98;;
16969;SDS011;8601;48.718;8.992;2022-07-05T15:17:50;1.15;;;0.88;;
16969;SDS011;8601;48.718;8.992;2022-07-05T15:20:17;3.90;;;0.90;;
16969;SDS011;8601;48.718;8.992;2022-07-05T15:22:47;1.38;;;0.90;;
16969;SDS011;8601;48.718;8.992;2022-07-05T15:25:14;2.72;;;0.93;;
16969;SDS011;8601;48.718;8.992;2022-07-05T15:27:41;3.13;;;0.80;;